Time;durP1;ratioP1;P1;durP2;ratioP2;P2;SDS_P1;SDS_P2;PMS_P1;PMS_P2;Temp;Humidity;BMP_temperature;BMP_pressure;BME280_temperature;BME280_humidity;BME280_pressure;Samples;Min_cycle;Max_cycle;Signal;HPM_P1;HPM_P2
2023/03/07 00:00:44;;;;;;;28.13;8.87;;;;;;;38.00;37.29;100947.13;6070513;23;20466;-77
2023/03/07 00:03:15;;;;;;;20.90;9.30;;;;;;;38.40;36.33;100938.09;6070770;23;20390;-80
2023/03/07 00:05:42;;;;;;;18.83;8.17;;;;;;;38.74;35.34;100925.13;6070443;23;20494;-77
2023/03/07 00:08:08;;;;;;;22.60;8.47;;;;;;;39.01;34.79;100908.66;6070642;23;20419;-82
2023/03/07 00:10:34;;;;;;;22.13;9.03;;;;;;;39.19;35.30;100901.44;6070523;23;20470;-77
2023/03/07 00:13:00;;;;;;;22.17;9.73;;;;;;;39.06;34.93;100899.59;6070714;23;20421;-80
2023/03/07 00:15:26;;;;;;;14.43;8.10;;;;;;;39.20;34.83;100920.09;6070423;23;20764;-79
2023/03/07 00:17:52;;;;;;;21.07;10.20;;;;;;;39.38;34.72;100944.59;6070140;23;20413;-77
2023/03/07 00:20:18;;;;;;;25.63;8.97;;;;;;;39.50;34.55;100956.44;6077594;23;20934;-77
2023/03/07 00:22:45;;;;;;;20.57;10.30;;;;;;;39.56;34.43;100957.09;6123567;23;20417;-75
2023/03/07 00:25:12;;;;;;;22.03;10.67;;;;;;;39.59;34.37;100948.31;6123823;23;20421;-77
2023/03/07 00:27:38;;;;;;;28.33;13.10;;;;;;;39.66;34.87;100956.84;6123725;23;20530;-79
2023/03/07 00:30:04;;;;;;;24.17;12.03;;;;;;;39.63;34.93;100949.31;6123501;23;20420;-78
2023/03/07 00:32:31;;;;;;;40.90;12.67;;;;;;;39.63;34.84;100941.19;6123921;23;20389;-77
2023/03/07 00:34:58;;;;;;;20.20;11.80;;;;;;;39.69;34.90;100931.75;6123470;23;20449;-77
2023/03/07 00:37:25;;;;;;;22.73;9.80;;;;;;;39.66;35.06;100916.13;6123779;23;20401;-79
2023/03/07 00:39:51;;;;;;;22.33;11.90;;;;;;;39.57;35.39;100920.69;6123422;23;20488;-77
2023/03/07 00:42:17;;;;;;;23.10;10.33;;;;;;;39.52;35.22;100904.53;6122917;23;20429;-77
2023/03/07 00:44:43;;;;;;;19.23;9.63;;;;;;;39.39;35.73;100906.28;6123275;23;20386;-77
2023/03/07 00:47:09;;;;;;;15.70;8.73;;;;;;;39.36;35.54;100901.50;6123635;23;20393;-78
2023/03/07 00:49:35;;;;;;;21.53;8.70;;;;;;;39.03;36.16;100898.28;6123498;23;20873;-77
2023/03/07 00:52:01;;;;;;;23.80;8.70;;;;;;;38.79;36.77;100895.94;6125261;23;20358;-77
2023/03/07 00:54:27;;;;;;;13.17;7.70;;;;;;;38.49;37.28;100908.38;6124842;23;20882;-77
2023/03/07 00:56:53;;;;;;;27.00;9.93;;;;;;;38.48;37.22;100909.44;6123718;23;20390;-77
2023/03/07 00:59:19;;;;;;;20.37;9.70;;;;;;;38.39;37.25;100912.09;6123377;23;20398;-80
2023/03/07 01:01:45;;;;;;;15.73;7.60;;;;;;;38.47;37.48;100909.75;6123605;23;20743;-77
2023/03/07 01:04:11;;;;;;;18.33;7.10;;;;;;;38.16;37.32;100900.41;6123466;23;20398;-78
2023/03/07 01:06:37;;;;;;;18.23;9.83;;;;;;;38.37;37.12;100898.06;6123548;23;20382;-74
2023/03/07 01:09:06;;;;;;;16.10;8.93;;;;;;;38.39;37.04;100890.44;6123598;23;20938;-78
2023/03/07 01:11:33;;;;;;;12.03;8.53;;;;;;;38.41;37.27;100895.53;6123457;23;20393;-76
2023/03/07 01:14:03;;;;;;;23.83;9.40;;;;;;;38.60;36.90;100871.72;6123377;23;20433;-78
2023/03/07 01:16:32;;;;;;;20.77;10.40;;;;;;;38.80;37.05;100862.31;6123405;23;20421;-76
2023/03/07 01:19:01;;;;;;;33.80;13.60;;;;;;;38.61;36.78;100854.38;6123411;23;20458;-80
2023/03/07 01:21:31;;;;;;;21.30;9.90;;;;;;;38.43;37.52;100848.06;6099308;23;20828;-77
2023/03/07 01:23:57;;;;;;;25.27;11.80;;;;;;;38.03;38.42;100852.53;6123383;23;20378;-76
2023/03/07 01:26:29;;;;;;;18.67;10.57;;;;;;;37.96;38.85;100857.56;6123393;23;20378;-77
2023/03/07 01:28:57;;;;;;;26.83;13.10;;;;;;;38.27;38.73;100857.66;6123444;23;20406;-77
2023/03/07 01:31:25;;;;;;;26.60;11.73;;;;;;;38.64;37.93;100852.94;6124333;23;20381;-77
2023/03/07 01:33:52;;;;;;;25.87;13.77;;;;;;;38.92;37.58;100845.47;6123367;23;20374;-76
2023/03/07 01:36:29;;;;;;;34.77;16.23;;;;;;;39.06;37.87;100854.28;6123101;23;20868;-79
2023/03/07 01:39:02;;;;;;;26.53;14.17;;;;;;;38.72;38.82;100848.69;6123455;23;20378;-79
2023/03/07 01:41:31;;;;;;;19.93;12.77;;;;;;;38.76;38.82;100845.06;6123229;23;20375;-77
2023/03/07 01:43:58;;;;;;;32.60;16.60;;;;;;;38.87;38.34;100832.03;6123582;23;20432;-81
2023/03/07 01:46:29;;;;;;;20.90;12.80;;;;;;;39.17;38.00;100823.06;6123234;23;20378;-81
2023/03/07 01:49:08;;;;;;;29.43;14.53;;;;;;;39.38;37.64;100806.97;6123391;23;20413;-82
2023/03/07 01:51:37;;;;;;;21.63;12.33;;;;;;;39.58;37.74;100799.31;6123211;23;20831;-78
2023/03/07 01:54:05;;;;;;;28.27;16.93;;;;;;;39.62;37.20;100786.75;6122604;23;20430;-81
2023/03/07 01:56:31;;;;;;;33.57;17.73;;;;;;;39.78;37.30;100770.75;6123038;23;20381;-78
2023/03/07 01:58:57;;;;;;;25.10;15.63;;;;;;;39.79;36.48;100764.22;6123117;23;20764;-82
2023/03/07 02:01:25;;;;;;;24.73;12.67;;;;;;;39.86;35.56;100761.81;6124333;23;20464;-82
2023/03/07 02:03:55;;;;;;;35.13;12.33;;;;;;;39.92;34.43;100757.81;6124197;23;20777;-76
2023/03/07 02:06:23;;;;;;;26.40;12.00;;;;;;;39.96;34.58;100737.00;6123240;23;20793;-78
2023/03/07 02:08:52;;;;;;;23.73;12.13;;;;;;;40.02;34.83;100724.84;6123241;23;20417;-83
2023/03/07 02:11:18;;;;;;;26.43;11.70;;;;;;;40.03;34.55;100712.88;6123201;23;20420;-84
2023/03/07 02:13:44;;;;;;;21.10;11.73;;;;;;;40.06;34.48;100712.25;6124668;23;20418;-77
2023/03/07 02:16:10;;;;;;;28.97;13.80;;;;;;;40.14;34.55;100719.56;6124975;23;20816;-81
2023/03/07 02:18:44;;;;;;;24.83;15.00;;;;;;;40.19;35.67;100730.25;6124112;23;20893;-77
2023/03/07 02:21:47;;;;;;;22.40;11.30;;;;;;;40.22;35.13;100736.97;6124016;23;20434;-80
2023/03/07 02:25:02;;;;;;;21.47;13.83;;;;;;;40.17;35.33;100731.72;6100166;23;20382;-82
2023/03/07 02:27:32;;;;;;;26.10;12.23;;;;;;;40.17;35.50;100718.94;6063487;23;20738;-78
2023/03/07 02:29:58;;;;;;;31.17;13.80;;;;;;;40.13;34.85;100707.09;6100206;23;20452;-78
2023/03/07 02:32:24;;;;;;;23.60;11.00;;;;;;;40.16;34.45;100706.47;6100220;23;20386;-77
2023/03/07 02:34:50;;;;;;;29.80;12.93;;;;;;;40.06;34.90;100690.50;6100321;23;20429;-79
2023/03/07 02:37:37;;;;;;;28.23;11.77;;;;;;;40.01;35.36;100671.63;6100107;23;20545;-78
2023/03/07 02:40:07;;;;;;;27.43;13.53;;;;;;;39.92;35.91;100679.84;6100199;23;20751;-81
2023/03/07 02:42:38;;;;;;;22.17;12.57;;;;;;;39.74;36.08;100668.22;6100253;23;20886;-81
2023/03/07 02:45:08;;;;;;;21.50;13.93;;;;;;;39.46;37.61;100656.09;6100376;23;20402;-81
2023/03/07 02:47:35;;;;;;;21.80;12.97;;;;;;;39.29;37.85;100645.25;6099941;23;20784;-78
2023/03/07 02:50:01;;;;;;;28.40;13.50;;;;;;;39.04;38.18;100628.66;6100327;23;20421;-82
2023/03/07 02:52:28;;;;;;;30.57;11.47;;;;;;;39.08;38.58;100607.91;6099655;23;20414;-80
2023/03/07 02:54:55;;;;;;;21.83;12.47;;;;;;;38.90;38.80;100579.97;6099904;23;20434;-77
2023/03/07 02:57:21;;;;;;;21.43;12.70;;;;;;;38.61;39.26;100556.22;6100348;23;20954;-78
2023/03/07 02:59:47;;;;;;;26.20;12.60;;;;;;;38.38;39.73;100514.09;6099865;23;20504;-77
2023/03/07 03:02:13;;;;;;;26.00;13.10;;;;;;;38.23;41.01;100482.00;6099650;23;20461;-79
2023/03/07 03:04:39;;;;;;;21.47;13.63;;;;;;;37.76;41.90;100460.06;6100085;23;20738;-76
2023/03/07 03:07:05;;;;;;;25.80;12.37;;;;;;;37.69;42.17;100424.53;6100044;23;20382;-76
2023/03/07 03:09:31;;;;;;;38.90;13.97;;;;;;;37.87;41.79;100410.75;6100029;23;20396;-77
2023/03/07 03:11:58;;;;;;;20.57;10.83;;;;;;;38.05;41.66;100410.78;6099226;23;20417;-80
2023/03/07 03:14:24;;;;;;;22.03;11.10;;;;;;;37.96;41.94;100429.72;6098878;23;20902;-80
2023/03/07 03:16:53;;;;;;;26.57;11.93;;;;;;;38.27;41.41;100416.06;6100057;23;20386;-81
2023/03/07 03:19:19;;;;;;;22.23;10.20;;;;;;;37.99;42.00;100420.16;6099941;23;20386;-77
2023/03/07 03:21:45;;;;;;;29.37;11.40;;;;;;;38.34;41.43;100424.50;6075883;23;20450;-78
2023/03/07 03:24:11;;;;;;;25.87;14.10;;;;;;;38.60;41.04;100413.66;6070484;23;20705;-76
2023/03/07 03:26:37;;;;;;;25.83;11.80;;;;;;;38.62;40.73;100427.69;6095189;23;20383;-77
2023/03/07 03:29:05;;;;;;;27.13;11.47;;;;;;;38.76;40.44;100440.28;6070462;23;20441;-76
2023/03/07 03:31:31;;;;;;;29.93;10.80;;;;;;;39.02;39.22;100441.03;6070929;23;20378;-76
2023/03/07 03:33:58;;;;;;;16.60;10.30;;;;;;;39.01;39.17;100468.47;6070688;23;20743;-83
2023/03/07 03:36:25;;;;;;;17.43;10.70;;;;;;;39.33;38.51;100467.91;6071481;23;20478;-83
2023/03/07 03:38:57;;;;;;;18.23;12.43;;;;;;;39.49;38.22;100468.19;6071430;23;20760;-84
2023/03/07 03:41:24;;;;;;;32.97;12.00;;;;;;;39.61;38.28;100457.44;6070820;23;20447;-79
2023/03/07 03:43:50;;;;;;;32.70;11.30;;;;;;;39.67;38.91;100455.34;6094796;23;20390;-83
2023/03/07 03:46:18;;;;;;;31.83;11.37;;;;;;;39.78;38.85;100464.72;6095390;23;20390;-85
2023/03/07 03:48:54;;;;;;;28.30;10.93;;;;;;;39.91;38.77;100477.25;6071419;23;20390;-85
2023/03/07 03:51:21;;;;;;;28.73;12.60;;;;;;;39.93;39.26;100493.22;6067150;23;20754;-84
2023/03/07 03:53:48;;;;;;;30.13;14.00;;;;;;;39.99;39.17;100492.69;6094355;23;20390;-84
2023/03/07 03:56:19;;;;;;;21.20;10.50;;;;;;;39.94;39.30;100500.22;6095454;23;20375;-81
2023/03/07 03:58:48;;;;;;;24.83;12.90;;;;;;;39.39;39.78;100499.19;6096803;23;20355;-81
2023/03/07 04:01:14;;;;;;;31.73;10.93;;;;;;;39.42;38.81;100503.19;6094965;23;20438;-79
2023/03/07 04:03:43;;;;;;;19.40;11.23;;;;;;;39.71;38.53;100499.72;6095351;23;20518;-83
2023/03/07 04:06:12;;;;;;;16.50;9.73;;;;;;;39.82;38.38;100511.00;6071009;23;20478;-83
2023/03/07 04:08:40;;;;;;;15.27;9.50;;;;;;;39.92;36.85;100507.91;6071079;23;20389;-83
2023/03/07 04:11:06;;;;;;;22.33;10.40;;;;;;;39.71;37.73;100521.44;6070446;23;20409;-82
2023/03/07 04:13:34;;;;;;;19.57;9.47;;;;;;;39.57;37.80;100505.34;6071184;23;20379;-83
2023/03/07 04:16:00;;;;;;;16.70;8.87;;;;;;;39.73;36.46;100516.50;6070405;23;20502;-83
2023/03/07 04:18:27;;;;;;;18.67;7.60;;;;;;;39.69;35.02;100513.63;6069750;23;20470;-82
2023/03/07 04:20:53;;;;;;;18.83;7.97;;;;;;;39.58;33.22;100506.94;6070255;23;20443;-83
2023/03/07 04:23:21;;;;;;;14.63;7.23;;;;;;;39.71;32.83;100516.78;6071005;23;20478;-82
2023/03/07 04:25:56;;;;;;;18.40;8.10;;;;;;;39.78;32.43;100540.75;6070360;23;20434;-83
2023/03/07 04:28:25;;;;;;;15.50;7.43;;;;;;;40.00;32.35;100574.97;6070944;23;20859;-81
2023/03/07 04:30:55;;;;;;;15.03;8.57;;;;;;;39.32;33.32;100557.78;6071007;23;20397;-82
2023/03/07 04:33:21;;;;;;;13.60;6.60;;;;;;;39.67;32.61;100567.47;6071047;23;20411;-82
2023/03/07 04:35:47;;;;;;;18.03;6.80;;;;;;;39.84;32.41;100563.06;6070452;23;20434;-87
2023/03/07 04:38:14;;;;;;;16.20;6.60;;;;;;;39.39;32.71;100547.22;6070389;23;20445;-83
2023/03/07 04:40:40;;;;;;;20.70;9.07;;;;;;;39.53;33.00;100531.53;6070036;23;20955;-82
2023/03/07 04:43:07;;;;;;;17.83;9.10;;;;;;;39.26;34.47;100524.59;6070349;23;20391;-82
2023/03/07 04:45:36;;;;;;;21.43;9.47;;;;;;;39.46;34.85;100537.47;6070044;23;20880;-82
2023/03/07 04:48:02;;;;;;;38.60;10.27;;;;;;;39.04;36.38;100539.16;6070306;23;20391;-79
2023/03/07 04:50:28;;;;;;;24.17;12.07;;;;;;;39.30;36.43;100560.84;6095823;23;20406;-80
2023/03/07 04:52:54;;;;;;;15.73;9.03;;;;;;;39.00;37.92;100559.09;6069655;23;20438;-79
2023/03/07 04:55:20;;;;;;;23.33;10.20;;;;;;;39.26;37.39;100559.09;6070284;23;20513;-77
2023/03/07 04:57:46;;;;;;;21.20;10.30;;;;;;;39.35;37.27;100554.41;6070030;23;20468;-83
2023/03/07 05:00:13;;;;;;;20.13;10.77;;;;;;;39.12;37.57;100551.91;6070176;23;20415;-83
2023/03/07 05:02:39;;;;;;;19.23;10.30;;;;;;;38.58;37.80;100558.75;6046350;23;20418;-82
2023/03/07 05:05:06;;;;;;;18.30;9.77;;;;;;;38.57;37.74;100571.50;6070409;23;20744;-83
2023/03/07 05:07:32;;;;;;;17.20;7.93;;;;;;;39.06;37.61;100572.16;6070141;23;20399;-84
2023/03/07 05:09:58;;;;;;;20.37;7.17;;;;;;;38.90;36.35;100571.06;6070599;23;20794;-83
2023/03/07 05:12:24;;;;;;;18.17;7.70;;;;;;;39.21;36.33;100573.59;6069883;23;20395;-84
2023/03/07 05:14:50;;;;;;;17.20;7.87;;;;;;;39.27;35.91;100568.81;6070491;23;20458;-83
2023/03/07 05:17:16;;;;;;;22.20;7.83;;;;;;;39.27;35.85;100568.81;6069540;23;20406;-79
2023/03/07 05:19:42;;;;;;;22.67;7.23;;;;;;;39.49;34.86;100590.31;6070664;23;20392;-85
2023/03/07 05:22:08;;;;;;;13.73;7.77;;;;;;;38.92;35.15;100585.91;6117552;23;20439;-84
2023/03/07 05:24:35;;;;;;;13.13;6.83;;;;;;;39.36;35.03;100583.97;6094286;23;20442;-83
2023/03/07 05:27:01;;;;;;;21.90;7.77;;;;;;;39.72;34.85;100599.06;6094638;23;20468;-84
2023/03/07 05:29:28;;;;;;;13.47;7.60;;;;;;;39.63;35.02;100596.38;6093532;23;20395;-78
2023/03/07 05:31:57;;;;;;;25.07;8.20;;;;;;;39.92;34.72;100590.19;6094867;23;20394;-83
2023/03/07 05:34:27;;;;;;;26.50;10.00;;;;;;;40.04;34.94;100597.69;6094389;23;20511;-83
2023/03/07 05:36:53;;;;;;;21.77;10.13;;;;;;;39.84;35.47;100601.91;6093441;23;20379;-79
2023/03/07 05:39:19;;;;;;;20.63;8.87;;;;;;;40.14;34.24;100612.81;6094657;23;20391;-80
2023/03/07 05:41:47;;;;;;;27.47;8.67;;;;;;;40.00;33.61;100616.50;6095612;23;20386;-83
2023/03/07 05:44:13;;;;;;;10.87;6.67;;;;;;;40.10;33.12;100615.41;6095658;23;20389;-82
2023/03/07 05:46:39;;;;;;;12.93;6.93;;;;;;;39.86;34.42;100613.22;6093250;23;20383;-76
2023/03/07 05:49:04;;;;;;;23.80;8.20;;;;;;;39.91;33.59;100623.13;6095855;23;20470;-81
2023/03/07 05:51:31;;;;;;;22.00;8.27;;;;;;;39.73;34.14;100620.47;6095372;23;20743;-80
2023/03/07 05:53:57;;;;;;;25.23;7.60;;;;;;;39.76;34.51;100624.44;6095067;23;20926;-81
2023/03/07 05:56:22;;;;;;;14.70;8.80;;;;;;;40.01;33.95;100628.97;6096063;23;20398;-82
2023/03/07 05:58:48;;;;;;;19.40;10.50;;;;;;;39.76;34.11;100621.72;6094542;23;20459;-75
2023/03/07 06:01:14;;;;;;;15.60;7.90;;;;;;;39.89;34.42;100628.06;6095609;23;20928;-75
2023/03/07 06:03:42;;;;;;;17.40;8.13;;;;;;;39.81;34.96;100635.13;6096061;23;20785;-76
2023/03/07 06:06:09;;;;;;;16.30;8.00;;;;;;;39.66;35.78;100636.47;6095498;23;20387;-76
2023/03/07 07:17:41;;;;;;;16.00;7.93;;;;;;;39.31;37.27;100801.22;5159917;27;20333;-80
2023/03/07 07:20:10;;;;;;;19.93;9.17;;;;;;;39.55;36.83;100800.75;5150287;27;20441;-79
2023/03/07 07:22:36;;;;;;;17.10;7.73;;;;;;;39.75;36.60;100810.22;5145061;27;20785;-80
2023/03/07 07:25:02;;;;;;;14.43;7.90;;;;;;;39.73;35.80;100817.88;5150569;27;20933;-84
2023/03/07 07:27:28;;;;;;;18.70;8.30;;;;;;;39.57;35.83;100820.25;5145606;27;20414;-86
2023/03/07 07:29:54;;;;;;;12.03;6.77;;;;;;;40.06;35.23;100818.19;5135839;27;20426;-80
2023/03/07 07:32:20;;;;;;;13.50;6.80;;;;;;;40.11;35.16;100826.19;5135440;27;20423;-80
2023/03/07 07:34:46;;;;;;;18.60;6.60;;;;;;;40.11;34.76;100828.09;5146801;27;20421;-80
2023/03/07 07:37:12;;;;;;;14.37;7.67;;;;;;;40.23;34.98;100826.31;5150382;27;20226;-80
2023/03/07 07:39:42;;;;;;;15.07;7.57;;;;;;;40.36;35.02;100837.34;5147930;27;20200;-88
2023/03/07 07:42:09;;;;;;;13.50;6.57;;;;;;;40.25;34.69;100836.88;5142182;27;20410;-83
2023/03/07 07:44:35;;;;;;;14.97;7.70;;;;;;;40.39;34.14;100842.09;5148517;27;20538;-82
2023/03/07 07:47:01;;;;;;;29.47;19.07;;;;;;;40.39;35.57;100851.09;5135308;27;20960;-87
2023/03/07 07:49:27;;;;;;;37.37;25.10;;;;;;;40.36;35.97;100856.34;5141610;27;20456;-87
2023/03/07 07:51:53;;;;;;;37.30;26.60;;;;;;;40.44;36.00;100858.25;5148263;27;20802;-87
2023/03/07 07:54:19;;;;;;;36.90;27.83;;;;;;;40.43;36.18;100862.88;5146624;27;20922;-87
2023/03/07 07:56:45;;;;;;;42.77;30.97;;;;;;;40.44;36.01;100863.69;5145155;27;20855;-90
2023/03/07 07:59:11;;;;;;;41.60;27.50;;;;;;;40.40;35.99;100868.97;5132895;27;20705;-89
2023/03/07 08:01:37;;;;;;;27.70;22.47;;;;;;;40.35;35.74;100871.06;5130813;27;20443;-78
2023/03/07 08:04:03;;;;;;;26.73;20.70;;;;;;;40.22;35.71;100876.38;5140247;27;20532;-89
2023/03/07 08:06:30;;;;;;;38.03;26.20;;;;;;;40.29;35.37;100876.66;5138559;27;20515;-79
2023/03/07 08:08:56;;;;;;;33.70;23.17;;;;;;;40.36;34.83;100875.38;5140831;27;20497;-80
2023/03/07 08:11:23;;;;;;;30.13;21.97;;;;;;;40.44;34.83;100877.28;5148595;27;20438;-86
2023/03/07 08:13:49;;;;;;;46.20;41.23;;;;;;;40.50;35.20;100870.56;5132487;27;20447;-85
2023/03/07 08:16:17;;;;;;;43.37;35.00;;;;;;;40.49;35.16;100877.13;5128742;27;20502;-79
2023/03/07 08:18:49;;;;;;;28.60;21.47;;;;;;;40.49;35.14;100872.50;5127359;27;20415;-91
2023/03/07 08:21:15;;;;;;;26.57;20.50;;;;;;;40.48;35.34;100870.09;5118317;27;20439;-89
2023/03/07 08:23:41;;;;;;;35.00;22.30;;;;;;;40.44;35.33;100871.84;5127913;27;20426;-78
2023/03/07 08:26:09;;;;;;;33.20;25.50;;;;;;;40.40;35.94;100879.06;5133600;27;20456;-84
2023/03/07 08:28:36;;;;;;;36.53;23.63;;;;;;;40.36;36.20;100894.41;5133350;27;20680;-87
2023/03/07 08:31:10;;;;;;;23.63;17.23;;;;;;;40.13;36.40;100894.59;5133570;27;20698;-88
2023/03/07 08:33:36;;;;;;;33.90;17.50;;;;;;;40.09;36.42;100896.38;5125682;27;20998;-88
2023/03/07 08:36:03;;;;;;;24.50;16.93;;;;;;;40.13;36.14;100896.50;5124024;27;20518;-88
2023/03/07 08:38:29;;;;;;;26.07;19.67;;;;;;;40.11;36.08;100899.56;5120017;27;20418;-87
2023/03/07 08:41:06;;;;;;;25.03;17.90;;;;;;;39.95;36.33;100907.34;5129456;27;20535;-88
2023/03/07 08:43:35;;;;;;;23.30;16.20;;;;;;;39.92;36.19;100907.19;5126359;27;20472;-89
2023/03/07 08:46:01;;;;;;;20.30;14.50;;;;;;;39.96;36.46;100919.81;5127861;27;20473;-89
2023/03/07 08:48:28;;;;;;;24.47;13.30;;;;;;;39.95;36.11;100920.91;5134425;27;20918;-91
2023/03/07 08:50:54;;;;;;;27.50;17.23;;;;;;;40.06;36.07;100928.78;5128331;27;20411;-91
2023/03/07 08:53:20;;;;;;;31.80;13.77;;;;;;;39.89;36.02;100932.25;5133216;27;20439;-90
2023/03/07 08:55:47;;;;;;;21.40;11.80;;;;;;;39.70;36.08;100933.34;5130888;27;20412;-90
2023/03/07 08:58:13;;;;;;;20.37;12.10;;;;;;;39.84;36.10;100933.25;5120475;27;20416;-90
2023/03/07 09:00:39;;;;;;;27.23;14.20;;;;;;;39.95;35.84;100939.13;5119963;27;20474;-90
2023/03/07 09:03:06;;;;;;;15.60;10.30;;;;;;;40.04;35.22;100945.41;5135321;27;20416;-88
2023/03/07 09:05:35;;;;;;;18.63;12.07;;;;;;;39.89;35.90;100948.56;5126461;27;20467;-90
2023/03/07 09:08:02;;;;;;;15.13;11.63;;;;;;;39.86;35.54;100952.72;5120528;27;20795;-91
2023/03/07 09:10:28;;;;;;;17.80;12.00;;;;;;;39.86;35.34;100954.66;5129869;27;20416;-92
2023/03/07 09:12:54;;;;;;;19.53;11.90;;;;;;;39.95;35.43;100955.44;5128265;27;20572;-93
2023/03/07 09:15:21;;;;;;;20.30;13.30;;;;;;;40.06;35.07;100962.19;5118578;27;20286;-94
2023/03/07 09:17:47;;;;;;;20.60;12.30;;;;;;;40.23;34.59;100956.78;5116593;27;20422;-92
2023/03/07 09:20:17;;;;;;;20.00;11.30;;;;;;;40.20;34.82;100957.41;5118485;27;20412;-93
2023/03/07 09:22:43;;;;;;;21.53;12.67;;;;;;;40.17;35.07;100965.41;5119563;27;20443;-93
2023/03/07 09:25:09;;;;;;;26.03;11.13;;;;;;;40.29;34.51;100960.94;5120214;27;20427;-93
2023/03/07 09:27:35;;;;;;;17.63;11.57;;;;;;;40.21;34.24;100963.66;5113048;27;20412;-92
2023/03/07 09:30:01;;;;;;;18.60;12.20;;;;;;;40.19;34.10;100961.25;5112575;28;20516;-93
2023/03/07 09:32:27;;;;;;;20.50;12.07;;;;;;;40.24;34.32;100961.09;5112422;27;20803;-82
2023/03/07 09:34:53;;;;;;;20.47;14.13;;;;;;;40.26;34.52;100953.41;5126573;27;20415;-94
2023/03/07 09:37:19;;;;;;;23.73;16.10;;;;;;;40.44;34.30;100958.84;5132612;27;20254;-83
2023/03/07 09:39:49;;;;;;;17.40;14.50;;;;;;;40.48;34.52;100962.53;5133054;27;20426;-88
2023/03/07 09:42:21;;;;;;;20.90;15.50;;;;;;;40.59;34.20;100963.81;5126307;27;20443;-92
2023/03/07 09:45:18;;;;;;;18.90;13.70;;;;;;;40.42;34.47;100961.88;5128272;27;20419;-92
2023/03/07 09:48:10;;;;;;;17.80;12.70;;;;;;;40.59;35.30;100958.38;5120309;27;20495;-92
2023/03/07 09:50:52;;;;;;;28.23;14.60;;;;;;;40.67;34.51;100965.72;5128125;27;20427;-88
2023/03/07 09:53:36;;;;;;;27.33;14.57;;;;;;;40.71;35.21;100958.50;5129057;27;20438;-87
2023/03/07 09:56:07;;;;;;;18.70;13.63;;;;;;;40.81;34.86;100955.44;5113755;27;20453;-92
2023/03/07 09:58:37;;;;;;;19.50;12.90;;;;;;;40.96;34.51;100954.16;5123523;27;20475;-92
2023/03/07 10:01:07;;;;;;;15.97;10.73;;;;;;;41.19;34.51;100959.34;5126683;27;20487;-86
2023/03/07 10:04:03;;;;;;;20.80;13.80;;;;;;;41.29;33.89;100954.34;5124318;27;20526;-84
2023/03/07 10:06:41;;;;;;;19.73;12.07;;;;;;;41.40;34.25;100948.56;5119177;27;20477;-82
2023/03/07 10:09:17;;;;;;;19.83;13.43;;;;;;;41.42;33.63;100936.19;5107196;27;20414;-82
2023/03/07 10:11:59;;;;;;;16.80;11.37;;;;;;;41.51;33.66;100931.50;5104219;28;20489;-88
2023/03/07 10:15:04;;;;;;;20.13;11.47;;;;;;;41.59;33.47;100930.66;5124948;27;20411;-82
2023/03/07 10:17:58;;;;;;;18.43;11.63;;;;;;;41.73;33.30;100924.94;5133150;27;20459;-82
2023/03/07 10:20:39;;;;;;;22.80;14.90;;;;;;;41.81;33.37;100926.06;5130567;27;20425;-82
2023/03/07 10:23:23;;;;;;;16.27;11.83;;;;;;;41.89;32.93;100922.47;5119530;27;20427;-86
2023/03/07 10:25:49;;;;;;;20.70;11.83;;;;;;;41.76;32.94;100921.59;5128434;27;20978;-87
2023/03/07 10:28:30;;;;;;;23.93;10.93;;;;;;;41.85;32.60;100921.53;5121016;27;20455;-90
2023/03/07 10:31:36;;;;;;;18.20;10.23;;;;;;;41.91;32.81;100917.47;5126741;27;20579;-80
2023/03/07 10:34:15;;;;;;;18.40;9.87;;;;;;;42.02;32.87;100915.16;5076630;27;20503;-86
2023/03/07 10:36:47;;;;;;;14.30;8.50;;;;;;;42.00;32.49;100911.97;5122569;27;20418;-87
2023/03/07 10:39:34;;;;;;;12.20;7.23;;;;;;;42.02;32.47;100909.69;5124140;27;20450;-83
2023/03/07 10:42:00;;;;;;;12.70;6.90;;;;;;;42.01;32.64;100897.22;5117733;27;20415;-89
2023/03/07 10:44:31;;;;;;;16.53;8.90;;;;;;;41.85;32.92;100900.53;5115938;27;20443;-80
2023/03/07 10:46:58;;;;;;;15.07;8.60;;;;;;;42.06;32.60;100894.28;5118204;27;20466;-80
2023/03/07 10:49:38;;;;;;;13.10;9.13;;;;;;;41.96;32.67;100890.03;5114479;27;20420;-81
2023/03/07 10:52:36;;;;;;;22.27;7.80;;;;;;;42.09;32.52;100891.69;5123610;27;20459;-80
2023/03/07 10:55:38;;;;;;;14.40;7.90;;;;;;;42.27;32.13;100881.44;5127961;27;20422;-92
2023/03/07 10:58:27;;;;;;;10.73;6.87;;;;;;;42.12;32.53;100871.94;5095635;22;20511;-86
2023/03/07 11:01:07;;;;;;;12.23;7.20;;;;;;;42.04;32.31;100880.19;5065945;28;20457;-88
2023/03/07 11:03:55;;;;;;;16.57;5.93;;;;;;;41.74;32.85;100871.25;5081734;28;20468;-82
2023/03/07 11:06:33;;;;;;;12.17;6.43;;;;;;;41.90;32.52;100863.31;5067001;28;20559;-87
2023/03/07 11:09:27;;;;;;;15.00;6.70;;;;;;;41.88;32.53;100860.16;5065072;28;20461;-82
2023/03/07 11:11:53;;;;;;;23.93;8.03;;;;;;;41.97;32.73;100858.13;5071432;28;20509;-84
2023/03/07 11:14:33;;;;;;;13.07;6.50;;;;;;;42.10;32.67;100855.09;5038755;28;20434;-81
2023/03/07 11:17:02;;;;;;;22.20;9.30;;;;;;;41.91;32.89;100854.81;5047598;28;20458;-87
2023/03/07 11:19:43;;;;;;;18.60;8.17;;;;;;;42.08;32.74;100846.47;5045843;28;20432;-92
2023/03/07 11:22:23;;;;;;;12.17;7.20;;;;;;;42.19;32.98;100838.72;5064782;28;20483;-90
2023/03/07 11:25:17;;;;;;;15.20;6.97;;;;;;;41.72;33.46;100836.19;5046907;28;20439;-92
2023/03/07 11:27:54;;;;;;;12.10;6.80;;;;;;;41.75;33.06;100838.28;5052742;28;20866;-91
2023/03/07 11:30:45;;;;;;;17.33;6.60;;;;;;;41.85;33.41;100832.41;5056374;28;20431;-89
2023/03/07 11:33:21;;;;;;;9.80;6.80;;;;;;;42.14;32.79;100833.44;5053933;28;20477;-93
2023/03/07 11:36:15;;;;;;;18.17;7.80;;;;;;;42.08;33.25;100829.34;5046516;28;20452;-81
2023/03/07 11:39:05;;;;;;;15.13;7.87;;;;;;;41.42;33.86;100823.78;5050229;28;21008;-91
2023/03/07 11:41:45;;;;;;;11.10;6.90;;;;;;;42.12;33.10;100822.88;5047557;28;20427;-91
2023/03/07 11:44:26;;;;;;;16.57;8.60;;;;;;;42.04;33.07;100815.56;5053503;28;20986;-88
2023/03/07 11:47:04;;;;;;;17.23;7.87;;;;;;;42.09;33.42;100811.84;5042570;28;21009;-84
2023/03/07 11:49:50;;;;;;;14.87;7.50;;;;;;;41.88;33.81;100808.38;5043439;28;20426;-88
2023/03/07 11:52:41;;;;;;;15.13;8.10;;;;;;;41.85;33.86;100807.09;5042938;28;20438;-87
2023/03/07 11:55:21;;;;;;;10.73;8.37;;;;;;;41.48;34.33;100806.13;5043611;28;20510;-87
2023/03/07 11:58:12;;;;;;;22.07;10.73;;;;;;;41.22;34.60;100803.56;5038878;28;20475;-80
2023/03/07 12:00:59;;;;;;;14.10;7.40;;;;;;;41.09;34.87;100797.25;5043996;28;20427;-90
2023/03/07 14:44:04;;;;;;;14.70;7.03;;;;;;;44.34;30.02;100578.91;6068984;22;3323828;-93
2023/03/07 15:09:19;;;;;;;25.52;10.27;;;;;;;45.95;29.16;100571.72;6179088;23;20439;-90
2023/03/07 15:12:14;;;;;;;13.57;8.37;;;;;;;46.11;28.73;100560.63;6157498;23;20168;-91
2023/03/07 15:15:20;;;;;;;18.23;8.17;;;;;;;46.16;28.10;100563.03;6158568;23;21122;-96
2023/03/07 15:35:11;;;;;;;12.23;8.17;;;;;;;46.22;28.07;100569.78;6138070;23;20483;-80
2023/03/07 15:38:22;;;;;;;16.43;10.03;;;;;;;45.73;29.10;100564.34;6136303;23;20961;-86
2023/03/07 15:40:55;;;;;;;14.60;8.40;;;;;;;44.98;29.20;100573.97;6159356;23;20384;-92
2023/03/07 15:43:36;;;;;;;15.07;8.73;;;;;;;45.05;29.00;100559.63;6129216;23;20448;-91
2023/03/07 15:46:18;;;;;;;14.60;9.17;;;;;;;45.05;30.04;100559.63;6131104;23;20412;-92
2023/03/07 15:49:00;;;;;;;19.20;8.10;;;;;;;44.92;29.82;100564.44;6156102;23;20434;-92
2023/03/07 15:51:34;;;;;;;12.93;8.73;;;;;;;44.74;30.39;100556.66;6131124;23;20384;-95
2023/03/07 15:54:28;;;;;;;13.90;6.43;;;;;;;44.65;30.23;100558.84;6154781;23;20416;-92
2023/03/07 15:56:56;;;;;;;16.57;8.90;;;;;;;44.51;30.43;100566.75;6129117;23;20439;-90
2023/03/07 15:59:41;;;;;;;15.87;10.00;;;;;;;44.43;31.02;100557.59;6130375;23;20385;-91